sensor_id;sensor_type;location;lat;lon;timestamp;P1;durP1;ratioP1;P2;durP2;ratioP2
17259;SDS011;8746;49.230;9.220;2024-03-25T00:00:58;2.80;;;2.47;;
17259;SDS011;8746;49.230;9.220;2024-03-25T00:03:23;3.27;;;2.40;;
17259;SDS011;8746;49.230;9.220;2024-03-25T00:05:49;3.17;;;2.47;;
17259;SDS011;8746;49.230;9.220;2024-03-25T00:08:15;5.33;;;2.70;;
17259;SDS011;8746;49.230;9.220;2024-03-25T00:10:40;4.17;;;2.60;;
17259;SDS011;8746;49.230;9.220;2024-03-25T00:13:06;3.17;;;2.63;;
17259;SDS011;8746;49.230;9.220;2024-03-25T00:15:31;4.27;;;2.70;;
17259;SDS011;8746;49.230;9.220;2024-03-25T00:17:56;3.57;;;2.60;;
17259;SDS011;8746;49.230;9.220;2024-03-25T00:20:21;4.30;;;2.87;;
17259;SDS011;8746;49.230;9.220;2024-03-25T00:22:47;3.23;;;2.90;;
17259;SDS011;8746;49.230;9.220;2024-03-25T00:25:12;4.50;;;2.80;;
17259;SDS011;8746;49.230;9.220;2024-03-25T00:27:37;3.77;;;2.63;;
17259;SDS011;8746;49.230;9.220;2024-03-25T00:30:03;3.90;;;2.77;;
17259;SDS011;8746;49.230;9.220;2024-03-25T00:32:30;6.23;;;3.20;;
17259;SDS011;8746;49.230;9.220;2024-03-25T00:34:55;7.77;;;3.53;;
17259;SDS011;8746;49.230;9.220;2024-03-25T00:37:20;8.97;;;2.83;;
17259;SDS011;8746;49.230;9.220;2024-03-25T00:39:46;5.30;;;2.83;;
17259;SDS011;8746;49.230;9.220;2024-03-25T00:42:12;4.27;;;2.97;;
17259;SDS011;8746;49.230;9.220;2024-03-25T00:44:37;3.63;;;2.60;;
17259;SDS011;8746;49.230;9.220;2024-03-25T00:47:02;6.80;;;3.17;;
17259;SDS011;8746;49.230;9.220;2024-03-25T00:49:28;4.70;;;2.40;;
17259;SDS011;8746;49.230;9.220;2024-03-25T00:51:54;3.90;;;2.73;;
17259;SDS011;8746;49.230;9.220;2024-03-25T00:54:19;3.20;;;2.70;;
17259;SDS011;8746;49.230;9.220;2024-03-25T00:56:45;4.07;;;2.63;;
17259;SDS011;8746;49.230;9.220;2024-03-25T00:59:11;4.17;;;2.80;;
17259;SDS011;8746;49.230;9.220;2024-03-25T01:01:36;5.27;;;3.00;;
17259;SDS011;8746;49.230;9.220;2024-03-25T01:04:02;4.80;;;2.50;;
17259;SDS011;8746;49.230;9.220;2024-03-25T01:06:28;6.10;;;2.83;;
17259;SDS011;8746;49.230;9.220;2024-03-25T01:08:53;3.47;;;2.73;;
17259;SDS011;8746;49.230;9.220;2024-03-25T01:11:19;5.63;;;2.50;;
17259;SDS011;8746;49.230;9.220;2024-03-25T01:13:44;4.60;;;2.90;;
17259;SDS011;8746;49.230;9.220;2024-03-25T01:16:09;5.37;;;3.03;;
17259;SDS011;8746;49.230;9.220;2024-03-25T01:18:35;2.97;;;2.67;;
17259;SDS011;8746;49.230;9.220;2024-03-25T01:21:01;3.93;;;2.90;;
17259;SDS011;8746;49.230;9.220;2024-03-25T01:23:27;4.37;;;2.70;;
17259;SDS011;8746;49.230;9.220;2024-03-25T01:25:52;4.03;;;3.07;;
17259;SDS011;8746;49.230;9.220;2024-03-25T01:28:17;4.13;;;3.03;;
17259;SDS011;8746;49.230;9.220;2024-03-25T01:30:43;5.13;;;3.10;;
17259;SDS011;8746;49.230;9.220;2024-03-25T01:33:08;5.10;;;3.20;;
17259;SDS011;8746;49.230;9.220;2024-03-25T01:35:34;4.63;;;3.47;;
17259;SDS011;8746;49.230;9.220;2024-03-25T01:37:59;4.27;;;2.70;;
17259;SDS011;8746;49.230;9.220;2024-03-25T01:40:25;4.27;;;2.90;;
17259;SDS011;8746;49.230;9.220;2024-03-25T01:42:57;5.90;;;3.07;;
17259;SDS011;8746;49.230;9.220;2024-03-25T01:45:27;6.03;;;3.27;;
17259;SDS011;8746;49.230;9.220;2024-03-25T01:47:55;3.70;;;2.80;;
17259;SDS011;8746;49.230;9.220;2024-03-25T01:50:22;4.93;;;3.37;;
17259;SDS011;8746;49.230;9.220;2024-03-25T01:52:47;6.47;;;3.23;;
17259;SDS011;8746;49.230;9.220;2024-03-25T01:55:18;6.17;;;2.90;;
17259;SDS011;8746;49.230;9.220;2024-03-25T01:57:46;3.17;;;2.87;;
17259;SDS011;8746;49.230;9.220;2024-03-25T02:00:12;4.37;;;2.60;;
17259;SDS011;8746;49.230;9.220;2024-03-25T02:02:39;5.60;;;3.33;;
17259;SDS011;8746;49.230;9.220;2024-03-25T02:05:10;5.50;;;3.13;;
17259;SDS011;8746;49.230;9.220;2024-03-25T02:07:36;3.67;;;3.03;;
17259;SDS011;8746;49.230;9.220;2024-03-25T02:10:02;4.70;;;3.13;;
17259;SDS011;8746;49.230;9.220;2024-03-25T02:12:29;3.83;;;2.87;;
17259;SDS011;8746;49.230;9.220;2024-03-25T02:14:55;3.20;;;2.90;;
17259;SDS011;8746;49.230;9.220;2024-03-25T02:17:20;5.20;;;3.03;;
17259;SDS011;8746;49.230;9.220;2024-03-25T02:19:46;4.67;;;3.03;;
17259;SDS011;8746;49.230;9.220;2024-03-25T02:22:11;4.43;;;3.20;;
17259;SDS011;8746;49.230;9.220;2024-03-25T02:24:36;6.53;;;2.93;;
17259;SDS011;8746;49.230;9.220;2024-03-25T02:27:03;5.97;;;2.90;;
17259;SDS011;8746;49.230;9.220;2024-03-25T02:29:33;7.00;;;3.07;;
17259;SDS011;8746;49.230;9.220;2024-03-25T02:31:59;3.83;;;3.00;;
17259;SDS011;8746;49.230;9.220;2024-03-25T02:34:24;5.93;;;3.30;;
17259;SDS011;8746;49.230;9.220;2024-03-25T02:36:49;4.93;;;3.03;;
17259;SDS011;8746;49.230;9.220;2024-03-25T02:39:15;4.10;;;2.97;;
17259;SDS011;8746;49.230;9.220;2024-03-25T02:41:40;5.07;;;3.30;;
17259;SDS011;8746;49.230;9.220;2024-03-25T02:44:06;4.80;;;3.27;;
17259;SDS011;8746;49.230;9.220;2024-03-25T02:46:31;3.80;;;3.40;;
17259;SDS011;8746;49.230;9.220;2024-03-25T02:48:58;5.00;;;3.27;;
17259;SDS011;8746;49.230;9.220;2024-03-25T02:51:24;6.53;;;3.57;;
17259;SDS011;8746;49.230;9.220;2024-03-25T02:53:49;6.73;;;3.37;;
17259;SDS011;8746;49.230;9.220;2024-03-25T02:56:14;6.67;;;3.17;;
17259;SDS011;8746;49.230;9.220;2024-03-25T02:58:39;3.80;;;3.40;;
17259;SDS011;8746;49.230;9.220;2024-03-25T03:01:05;5.37;;;3.57;;
17259;SDS011;8746;49.230;9.220;2024-03-25T03:03:30;4.73;;;3.50;;
17259;SDS011;8746;49.230;9.220;2024-03-25T03:05:55;4.87;;;3.23;;
17259;SDS011;8746;49.230;9.220;2024-03-25T03:08:21;4.13;;;3.17;;
17259;SDS011;8746;49.230;9.220;2024-03-25T03:10:46;3.93;;;3.53;;
17259;SDS011;8746;49.230;9.220;2024-03-25T03:13:11;5.47;;;3.40;;
17259;SDS011;8746;49.230;9.220;2024-03-25T03:15:37;6.20;;;3.50;;
17259;SDS011;8746;49.230;9.220;2024-03-25T03:18:02;5.23;;;3.37;;
17259;SDS011;8746;49.230;9.220;2024-03-25T03:20:28;4.57;;;3.50;;
17259;SDS011;8746;49.230;9.220;2024-03-25T03:22:54;3.90;;;3.33;;
17259;SDS011;8746;49.230;9.220;2024-03-25T03:25:19;6.00;;;3.30;;
17259;SDS011;8746;49.230;9.220;2024-03-25T03:27:44;5.43;;;3.50;;
17259;SDS011;8746;49.230;9.220;2024-03-25T03:30:10;4.60;;;3.07;;
17259;SDS011;8746;49.230;9.220;2024-03-25T03:32:35;4.80;;;2.97;;
17259;SDS011;8746;49.230;9.220;2024-03-25T03:35:01;4.60;;;3.53;;
17259;SDS011;8746;49.230;9.220;2024-03-25T03:37:26;3.97;;;3.17;;
17259;SDS011;8746;49.230;9.220;2024-03-25T03:39:51;9.50;;;4.10;;
17259;SDS011;8746;49.230;9.220;2024-03-25T03:42:17;4.83;;;3.50;;
17259;SDS011;8746;49.230;9.220;2024-03-25T03:44:42;7.43;;;3.90;;
17259;SDS011;8746;49.230;9.220;2024-03-25T03:47:07;4.60;;;3.37;;
17259;SDS011;8746;49.230;9.220;2024-03-25T03:49:33;5.97;;;3.27;;
17259;SDS011;8746;49.230;9.220;2024-03-25T03:51:58;4.33;;;3.60;;
17259;SDS011;8746;49.230;9.220;2024-03-25T03:54:24;7.47;;;3.43;;
17259;SDS011;8746;49.230;9.220;2024-03-25T03:56:49;4.27;;;3.10;;
17259;SDS011;8746;49.230;9.220;2024-03-25T03:59:14;4.50;;;3.00;;
17259;SDS011;8746;49.230;9.220;2024-03-25T04:01:40;3.93;;;3.50;;
17259;SDS011;8746;49.230;9.220;2024-03-25T04:04:05;5.23;;;3.70;;
17259;SDS011;8746;49.230;9.220;2024-03-25T04:06:30;4.97;;;3.73;;
17259;SDS011;8746;49.230;9.220;2024-03-25T04:08:56;7.50;;;4.00;;
17259;SDS011;8746;49.230;9.220;2024-03-25T04:11:21;4.10;;;3.40;;
17259;SDS011;8746;49.230;9.220;2024-03-25T04:13:46;5.63;;;3.30;;
17259;SDS011;8746;49.230;9.220;2024-03-25T04:16:12;6.30;;;3.50;;
17259;SDS011;8746;49.230;9.220;2024-03-25T04:18:37;5.73;;;3.43;;
17259;SDS011;8746;49.230;9.220;2024-03-25T04:21:03;6.40;;;3.30;;
17259;SDS011;8746;49.230;9.220;2024-03-25T04:23:29;6.47;;;3.67;;
17259;SDS011;8746;49.230;9.220;2024-03-25T04:25:54;8.80;;;3.70;;
17259;SDS011;8746;49.230;9.220;2024-03-25T04:28:20;5.43;;;3.73;;
17259;SDS011;8746;49.230;9.220;2024-03-25T04:30:54;6.27;;;3.27;;
17259;SDS011;8746;49.230;9.220;2024-03-25T04:33:19;4.03;;;3.50;;
17259;SDS011;8746;49.230;9.220;2024-03-25T04:35:45;8.87;;;3.60;;
17259;SDS011;8746;49.230;9.220;2024-03-25T04:38:11;4.67;;;3.50;;
17259;SDS011;8746;49.230;9.220;2024-03-25T04:40:37;4.83;;;3.30;;
17259;SDS011;8746;49.230;9.220;2024-03-25T04:43:02;7.70;;;3.40;;
17259;SDS011;8746;49.230;9.220;2024-03-25T04:45:28;4.50;;;3.73;;
17259;SDS011;8746;49.230;9.220;2024-03-25T04:47:53;4.83;;;3.47;;
17259;SDS011;8746;49.230;9.220;2024-03-25T04:50:18;4.97;;;3.60;;
17259;SDS011;8746;49.230;9.220;2024-03-25T04:52:44;5.93;;;3.27;;
17259;SDS011;8746;49.230;9.220;2024-03-25T04:55:09;6.57;;;3.43;;
17259;SDS011;8746;49.230;9.220;2024-03-25T04:57:34;6.40;;;3.77;;
17259;SDS011;8746;49.230;9.220;2024-03-25T05:00:00;4.80;;;3.43;;
17259;SDS011;8746;49.230;9.220;2024-03-25T05:02:25;5.77;;;3.43;;
17259;SDS011;8746;49.230;9.220;2024-03-25T05:04:50;4.70;;;3.60;;
17259;SDS011;8746;49.230;9.220;2024-03-25T05:07:17;4.30;;;2.93;;
17259;SDS011;8746;49.230;9.220;2024-03-25T05:09:42;5.63;;;3.03;;
17259;SDS011;8746;49.230;9.220;2024-03-25T05:12:07;4.57;;;2.87;;
17259;SDS011;8746;49.230;9.220;2024-03-25T05:14:33;8.73;;;3.73;;
17259;SDS011;8746;49.230;9.220;2024-03-25T05:16:58;7.20;;;3.40;;
17259;SDS011;8746;49.230;9.220;2024-03-25T05:19:23;7.73;;;3.70;;
17259;SDS011;8746;49.230;9.220;2024-03-25T05:21:49;7.23;;;3.43;;
17259;SDS011;8746;49.230;9.220;2024-03-25T05:24:14;5.93;;;3.33;;
17259;SDS011;8746;49.230;9.220;2024-03-25T05:26:39;4.60;;;3.67;;
17259;SDS011;8746;49.230;9.220;2024-03-25T05:29:05;5.80;;;3.60;;
17259;SDS011;8746;49.230;9.220;2024-03-25T05:31:30;6.70;;;3.80;;
17259;SDS011;8746;49.230;9.220;2024-03-25T05:33:55;5.73;;;4.07;;
17259;SDS011;8746;49.230;9.220;2024-03-25T05:36:21;7.03;;;4.10;;
17259;SDS011;8746;49.230;9.220;2024-03-25T05:38:46;8.37;;;4.87;;
17259;SDS011;8746;49.230;9.220;2024-03-25T05:41:12;14.00;;;6.77;;
17259;SDS011;8746;49.230;9.220;2024-03-25T05:43:37;8.23;;;6.10;;
17259;SDS011;8746;49.230;9.220;2024-03-25T05:46:03;15.60;;;10.63;;
17259;SDS011;8746;49.230;9.220;2024-03-25T05:48:29;15.27;;;8.53;;
17259;SDS011;8746;49.230;9.220;2024-03-25T05:51:04;13.60;;;8.30;;
17259;SDS011;8746;49.230;9.220;2024-03-25T05:53:30;7.80;;;5.80;;
17259;SDS011;8746;49.230;9.220;2024-03-25T05:55:55;8.17;;;5.27;;
17259;SDS011;8746;49.230;9.220;2024-03-25T05:58:21;6.37;;;4.70;;
17259;SDS011;8746;49.230;9.220;2024-03-25T06:00:48;6.07;;;4.13;;
17259;SDS011;8746;49.230;9.220;2024-03-25T06:03:14;9.10;;;4.80;;
17259;SDS011;8746;49.230;9.220;2024-03-25T06:05:40;11.30;;;4.57;;
17259;SDS011;8746;49.230;9.220;2024-03-25T06:08:06;8.83;;;4.93;;
17259;SDS011;8746;49.230;9.220;2024-03-25T06:10:39;9.60;;;6.83;;
17259;SDS011;8746;49.230;9.220;2024-03-25T06:13:04;9.80;;;7.50;;
17259;SDS011;8746;49.230;9.220;2024-03-25T06:15:30;10.33;;;5.97;;
17259;SDS011;8746;49.230;9.220;2024-03-25T06:17:55;7.50;;;5.33;;
17259;SDS011;8746;49.230;9.220;2024-03-25T06:20:20;11.30;;;9.50;;
17259;SDS011;8746;49.230;9.220;2024-03-25T06:22:46;10.20;;;9.20;;
17259;SDS011;8746;49.230;9.220;2024-03-25T06:25:11;10.03;;;6.80;;
17259;SDS011;8746;49.230;9.220;2024-03-25T06:27:37;13.57;;;6.67;;
17259;SDS011;8746;49.230;9.220;2024-03-25T06:30:02;9.10;;;6.00;;
17259;SDS011;8746;49.230;9.220;2024-03-25T06:33:00;9.03;;;6.00;;
17259;SDS011;8746;49.230;9.220;2024-03-25T06:35:44;7.17;;;5.50;;
17259;SDS011;8746;49.230;9.220;2024-03-25T06:38:10;9.00;;;6.07;;
17259;SDS011;8746;49.230;9.220;2024-03-25T06:40:36;7.97;;;5.33;;
17259;SDS011;8746;49.230;9.220;2024-03-25T06:43:02;9.60;;;5.67;;
17259;SDS011;8746;49.230;9.220;2024-03-25T06:45:28;8.53;;;5.47;;
17259;SDS011;8746;49.230;9.220;2024-03-25T06:47:54;8.33;;;6.20;;
17259;SDS011;8746;49.230;9.220;2024-03-25T06:50:19;9.07;;;6.00;;
17259;SDS011;8746;49.230;9.220;2024-03-25T06:52:45;9.37;;;6.10;;
17259;SDS011;8746;49.230;9.220;2024-03-25T06:55:10;8.13;;;6.30;;
17259;SDS011;8746;49.230;9.220;2024-03-25T06:57:35;7.40;;;5.30;;
17259;SDS011;8746;49.230;9.220;2024-03-25T07:00:01;10.77;;;6.13;;
17259;SDS011;8746;49.230;9.220;2024-03-25T07:02:26;8.37;;;5.40;;
17259;SDS011;8746;49.230;9.220;2024-03-25T07:04:51;9.17;;;5.23;;
17259;SDS011;8746;49.230;9.220;2024-03-25T07:07:17;8.33;;;5.20;;
17259;SDS011;8746;49.230;9.220;2024-03-25T07:09:42;9.43;;;5.50;;
17259;SDS011;8746;49.230;9.220;2024-03-25T07:12:08;8.67;;;5.23;;
17259;SDS011;8746;49.230;9.220;2024-03-25T07:14:33;4.50;;;4.07;;
17259;SDS011;8746;49.230;9.220;2024-03-25T07:16:59;6.33;;;4.70;;
17259;SDS011;8746;49.230;9.220;2024-03-25T07:19:24;6.00;;;4.30;;
17259;SDS011;8746;49.230;9.220;2024-03-25T07:21:49;5.23;;;3.93;;
17259;SDS011;8746;49.230;9.220;2024-03-25T07:24:15;4.90;;;4.17;;
17259;SDS011;8746;49.230;9.220;2024-03-25T07:26:40;6.60;;;3.80;;
17259;SDS011;8746;49.230;9.220;2024-03-25T07:29:05;7.40;;;6.00;;
17259;SDS011;8746;49.230;9.220;2024-03-25T07:31:31;5.30;;;3.83;;
17259;SDS011;8746;49.230;9.220;2024-03-25T07:33:56;8.83;;;3.90;;
17259;SDS011;8746;49.230;9.220;2024-03-25T07:36:22;5.47;;;3.90;;
17259;SDS011;8746;49.230;9.220;2024-03-25T07:38:47;6.27;;;4.00;;
17259;SDS011;8746;49.230;9.220;2024-03-25T07:41:12;6.30;;;3.90;;
17259;SDS011;8746;49.230;9.220;2024-03-25T07:43:38;5.43;;;3.57;;
17259;SDS011;8746;49.230;9.220;2024-03-25T07:46:03;6.37;;;3.60;;
17259;SDS011;8746;49.230;9.220;2024-03-25T07:48:30;6.43;;;3.83;;
17259;SDS011;8746;49.230;9.220;2024-03-25T07:50:55;5.63;;;3.70;;
17259;SDS011;8746;49.230;9.220;2024-03-25T07:53:20;4.47;;;3.77;;
17259;SDS011;8746;49.230;9.220;2024-03-25T07:55:45;5.37;;;3.67;;
17259;SDS011;8746;49.230;9.220;2024-03-25T07:58:11;4.13;;;3.40;;
17259;SDS011;8746;49.230;9.220;2024-03-25T08:00:36;4.90;;;2.53;;
17259;SDS011;8746;49.230;9.220;2024-03-25T08:03:02;5.50;;;3.00;;
17259;SDS011;8746;49.230;9.220;2024-03-25T08:05:29;6.17;;;3.03;;
17259;SDS011;8746;49.230;9.220;2024-03-25T08:07:55;5.17;;;2.80;;
17259;SDS011;8746;49.230;9.220;2024-03-25T08:10:20;6.60;;;2.63;;
17259;SDS011;8746;49.230;9.220;2024-03-25T08:12:46;5.20;;;2.80;;
17259;SDS011;8746;49.230;9.220;2024-03-25T08:15:11;3.30;;;2.20;;
17259;SDS011;8746;49.230;9.220;2024-03-25T08:17:37;4.27;;;2.57;;
17259;SDS011;8746;49.230;9.220;2024-03-25T08:20:02;4.50;;;2.20;;
17259;SDS011;8746;49.230;9.220;2024-03-25T08:22:28;5.30;;;2.47;;
17259;SDS011;8746;49.230;9.220;2024-03-25T08:24:53;3.40;;;2.00;;
17259;SDS011;8746;49.230;9.220;2024-03-25T08:27:19;5.27;;;2.03;;
17259;SDS011;8746;49.230;9.220;2024-03-25T08:29:44;4.10;;;2.20;;
17259;SDS011;8746;49.230;9.220;2024-03-25T08:32:09;3.27;;;2.37;;
17259;SDS011;8746;49.230;9.220;2024-03-25T08:34:34;5.47;;;2.67;;
17259;SDS011;8746;49.230;9.220;2024-03-25T08:37:00;3.17;;;2.13;;
17259;SDS011;8746;49.230;9.220;2024-03-25T08:39:25;4.17;;;2.20;;
17259;SDS011;8746;49.230;9.220;2024-03-25T08:41:50;3.90;;;2.43;;
17259;SDS011;8746;49.230;9.220;2024-03-25T08:44:16;4.70;;;2.50;;
17259;SDS011;8746;49.230;9.220;2024-03-25T08:46:41;4.53;;;2.17;;
17259;SDS011;8746;49.230;9.220;2024-03-25T08:49:06;3.63;;;2.00;;
17259;SDS011;8746;49.230;9.220;2024-03-25T08:51:32;4.07;;;2.13;;
17259;SDS011;8746;49.230;9.220;2024-03-25T08:53:57;2.57;;;2.00;;
17259;SDS011;8746;49.230;9.220;2024-03-25T08:56:23;4.43;;;1.80;;
17259;SDS011;8746;49.230;9.220;2024-03-25T08:58:48;2.77;;;1.77;;
17259;SDS011;8746;49.230;9.220;2024-03-25T09:01:13;3.83;;;2.23;;
17259;SDS011;8746;49.230;9.220;2024-03-25T09:03:41;3.03;;;2.20;;
17259;SDS011;8746;49.230;9.220;2024-03-25T09:06:06;4.97;;;2.10;;
17259;SDS011;8746;49.230;9.220;2024-03-25T09:08:32;2.87;;;2.00;;
17259;SDS011;8746;49.230;9.220;2024-03-25T09:11:17;2.70;;;2.10;;
17259;SDS011;8746;49.230;9.220;2024-03-25T09:13:43;3.43;;;2.00;;
17259;SDS011;8746;49.230;9.220;2024-03-25T09:16:08;2.13;;;1.60;;
17259;SDS011;8746;49.230;9.220;2024-03-25T09:18:33;2.23;;;2.00;;
17259;SDS011;8746;49.230;9.220;2024-03-25T09:20:59;3.00;;;2.27;;
17259;SDS011;8746;49.230;9.220;2024-03-25T09:23:24;4.40;;;2.37;;
17259;SDS011;8746;49.230;9.220;2024-03-25T09:25:52;4.43;;;2.17;;
17259;SDS011;8746;49.230;9.220;2024-03-25T09:28:18;4.70;;;2.00;;
17259;SDS011;8746;49.230;9.220;2024-03-25T09:30:44;3.27;;;1.90;;
17259;SDS011;8746;49.230;9.220;2024-03-25T09:33:09;4.10;;;2.20;;
17259;SDS011;8746;49.230;9.220;2024-03-25T09:35:35;2.33;;;1.87;;
17259;SDS011;8746;49.230;9.220;2024-03-25T09:38:02;3.40;;;2.00;;
17259;SDS011;8746;49.230;9.220;2024-03-25T09:40:27;2.90;;;1.90;;
17259;SDS011;8746;49.230;9.220;2024-03-25T09:42:57;4.23;;;2.07;;
17259;SDS011;8746;49.230;9.220;2024-03-25T09:45:25;3.57;;;1.80;;
17259;SDS011;8746;49.230;9.220;2024-03-25T09:47:51;3.30;;;1.80;;
17259;SDS011;8746;49.230;9.220;2024-03-25T09:50:16;5.07;;;1.93;;
17259;SDS011;8746;49.230;9.220;2024-03-25T09:52:45;3.33;;;1.77;;
17259;SDS011;8746;49.230;9.220;2024-03-25T09:55:14;3.53;;;1.40;;
17259;SDS011;8746;49.230;9.220;2024-03-25T09:57:39;3.07;;;1.40;;
17259;SDS011;8746;49.230;9.220;2024-03-25T10:00:07;2.67;;;1.77;;
17259;SDS011;8746;49.230;9.220;2024-03-25T10:02:39;3.10;;;1.40;;
17259;SDS011;8746;49.230;9.220;2024-03-25T10:05:06;4.33;;;1.90;;
17259;SDS011;8746;49.230;9.220;2024-03-25T10:07:32;4.90;;;1.70;;
17259;SDS011;8746;49.230;9.220;2024-03-25T10:09:59;1.50;;;1.40;;
17259;SDS011;8746;49.230;9.220;2024-03-25T10:12:24;3.03;;;1.60;;
17259;SDS011;8746;49.230;9.220;2024-03-25T10:14:50;3.30;;;1.70;;
17259;SDS011;8746;49.230;9.220;2024-03-25T10:17:15;4.00;;;1.80;;
17259;SDS011;8746;49.230;9.220;2024-03-25T10:19:41;3.03;;;1.60;;
17259;SDS011;8746;49.230;9.220;2024-03-25T10:22:07;2.23;;;1.60;;
17259;SDS011;8746;49.230;9.220;2024-03-25T10:24:39;2.47;;;1.60;;
17259;SDS011;8746;49.230;9.220;2024-03-25T10:27:06;3.90;;;2.00;;
17259;SDS011;8746;49.230;9.220;2024-03-25T10:29:36;4.07;;;1.47;;
17259;SDS011;8746;49.230;9.220;2024-03-25T10:32:02;3.30;;;1.70;;
17259;SDS011;8746;49.230;9.220;2024-03-25T10:34:29;1.90;;;1.50;;
17259;SDS011;8746;49.230;9.220;2024-03-25T10:36:56;4.13;;;1.80;;
17259;SDS011;8746;49.230;9.220;2024-03-25T10:39:24;2.50;;;1.80;;
17259;SDS011;8746;49.230;9.220;2024-03-25T10:41:51;4.17;;;1.97;;
17259;SDS011;8746;49.230;9.220;2024-03-25T10:44:21;1.80;;;1.40;;
17259;SDS011;8746;49.230;9.220;2024-03-25T10:46:48;4.13;;;1.60;;
17259;SDS011;8746;49.230;9.220;2024-03-25T10:52:21;1.90;;;1.40;;
17259;SDS011;8746;49.230;9.220;2024-03-25T10:54:48;3.17;;;1.70;;
17259;SDS011;8746;49.230;9.220;2024-03-25T10:57:14;2.77;;;1.80;;
17259;SDS011;8746;49.230;9.220;2024-03-25T10:59:42;2.33;;;1.50;;
17259;SDS011;8746;49.230;9.220;2024-03-25T11:02:08;3.50;;;1.83;;
17259;SDS011;8746;49.230;9.220;2024-03-25T11:04:34;6.67;;;2.00;;
17259;SDS011;8746;49.230;9.220;2024-03-25T11:07:08;3.20;;;1.60;;
17259;SDS011;8746;49.230;9.220;2024-03-25T11:09:40;2.22;;;1.60;;
17259;SDS011;8746;49.230;9.220;2024-03-25T11:12:09;3.07;;;1.60;;
17259;SDS011;8746;49.230;9.220;2024-03-25T11:14:35;2.23;;;2.00;;
17259;SDS011;8746;49.230;9.220;2024-03-25T11:17:01;2.53;;;1.97;;
17259;SDS011;8746;49.230;9.220;2024-03-25T11:19:27;2.47;;;1.70;;
17259;SDS011;8746;49.230;9.220;2024-03-25T11:22:09;4.15;;;1.55;;
17259;SDS011;8746;49.230;9.220;2024-03-25T11:24:35;3.97;;;1.83;;
17259;SDS011;8746;49.230;9.220;2024-03-25T11:27:02;3.70;;;2.03;;
17259;SDS011;8746;49.230;9.220;2024-03-25T11:29:31;2.13;;;1.50;;
17259;SDS011;8746;49.230;9.220;2024-03-25T11:31:56;4.07;;;1.67;;
17259;SDS011;8746;49.230;9.220;2024-03-25T11:34:25;3.03;;;1.53;;
17259;SDS011;8746;49.230;9.220;2024-03-25T11:36:50;4.60;;;1.77;;
17259;SDS011;8746;49.230;9.220;2024-03-25T11:39:24;1.92;;;1.38;;
17259;SDS011;8746;49.230;9.220;2024-03-25T11:41:53;5.03;;;1.88;;
17259;SDS011;8746;49.230;9.220;2024-03-25T11:44:19;2.33;;;1.42;;
17259;SDS011;8746;49.230;9.220;2024-03-25T11:46:44;2.72;;;1.50;;
17259;SDS011;8746;49.230;9.220;2024-03-25T11:49:14;2.53;;;1.75;;
17259;SDS011;8746;49.230;9.220;2024-03-25T11:51:40;4.22;;;1.73;;
17259;SDS011;8746;49.230;9.220;2024-03-25T11:54:10;2.42;;;1.60;;
17259;SDS011;8746;49.230;9.220;2024-03-25T11:56:36;4.18;;;1.80;;
17259;SDS011;8746;49.230;9.220;2024-03-25T11:59:03;2.25;;;1.60;;
17259;SDS011;8746;49.230;9.220;2024-03-25T12:01:29;2.85;;;1.67;;
17259;SDS011;8746;49.230;9.220;2024-03-25T12:03:55;3.03;;;1.55;;
17259;SDS011;8746;49.230;9.220;2024-03-25T12:06:21;1.88;;;1.70;;
17259;SDS011;8746;49.230;9.220;2024-03-25T12:08:47;2.55;;;1.80;;
17259;SDS011;8746;49.230;9.220;2024-03-25T12:11:31;4.35;;;1.90;;
17259;SDS011;8746;49.230;9.220;2024-03-25T12:13:56;1.92;;;1.48;;
17259;SDS011;8746;49.230;9.220;2024-03-25T12:16:23;3.78;;;1.83;;
17259;SDS011;8746;49.230;9.220;2024-03-25T12:18:49;4.10;;;2.20;;
17259;SDS011;8746;49.230;9.220;2024-03-25T12:21:14;3.23;;;2.00;;
17259;SDS011;8746;49.230;9.220;2024-03-25T12:23:39;4.13;;;1.70;;
17259;SDS011;8746;49.230;9.220;2024-03-25T12:26:07;2.77;;;1.80;;
17259;SDS011;8746;49.230;9.220;2024-03-25T12:28:33;2.73;;;1.77;;
17259;SDS011;8746;49.230;9.220;2024-03-25T12:31:02;3.47;;;1.97;;
17259;SDS011;8746;49.230;9.220;2024-03-25T12:33:39;3.40;;;1.80;;
17259;SDS011;8746;49.230;9.220;2024-03-25T12:36:11;2.07;;;1.73;;
17259;SDS011;8746;49.230;9.220;2024-03-25T12:38:37;4.87;;;1.90;;
17259;SDS011;8746;49.230;9.220;2024-03-25T12:41:03;1.77;;;1.60;;
17259;SDS011;8746;49.230;9.220;2024-03-25T12:43:33;2.53;;;1.80;;
17259;SDS011;8746;49.230;9.220;2024-03-25T12:46:00;3.07;;;1.70;;
17259;SDS011;8746;49.230;9.220;2024-03-25T12:48:26;2.60;;;2.03;;
17259;SDS011;8746;49.230;9.220;2024-03-25T12:50:52;2.90;;;1.80;;
17259;SDS011;8746;49.230;9.220;2024-03-25T12:53:18;2.83;;;1.80;;
17259;SDS011;8746;49.230;9.220;2024-03-25T12:55:45;2.37;;;1.83;;
17259;SDS011;8746;49.230;9.220;2024-03-25T12:58:11;3.37;;;1.90;;
17259;SDS011;8746;49.230;9.220;2024-03-25T13:00:36;2.27;;;1.80;;
17259;SDS011;8746;49.230;9.220;2024-03-25T13:03:03;2.20;;;1.80;;
17259;SDS011;8746;49.230;9.220;2024-03-25T13:05:29;5.67;;;1.80;;
17259;SDS011;8746;49.230;9.220;2024-03-25T13:07:54;2.10;;;1.70;;
17259;SDS011;8746;49.230;9.220;2024-03-25T13:10:20;2.77;;;1.77;;
17259;SDS011;8746;49.230;9.220;2024-03-25T13:12:46;2.40;;;2.10;;
17259;SDS011;8746;49.230;9.220;2024-03-25T13:15:11;3.43;;;1.87;;
17259;SDS011;8746;49.230;9.220;2024-03-25T13:17:36;1.77;;;1.50;;
17259;SDS011;8746;49.230;9.220;2024-03-25T13:20:02;2.50;;;1.70;;
17259;SDS011;8746;49.230;9.220;2024-03-25T13:22:29;2.53;;;1.50;;
17259;SDS011;8746;49.230;9.220;2024-03-25T13:24:56;2.57;;;1.70;;
17259;SDS011;8746;49.230;9.220;2024-03-25T13:27:21;1.80;;;1.70;;
17259;SDS011;8746;49.230;9.220;2024-03-25T13:29:46;2.57;;;1.80;;
17259;SDS011;8746;49.230;9.220;2024-03-25T13:32:12;3.40;;;2.00;;
17259;SDS011;8746;49.230;9.220;2024-03-25T13:34:37;2.87;;;1.80;;
17259;SDS011;8746;49.230;9.220;2024-03-25T13:37:03;3.40;;;1.73;;
17259;SDS011;8746;49.230;9.220;2024-03-25T13:39:28;3.03;;;2.00;;
17259;SDS011;8746;49.230;9.220;2024-03-25T13:41:53;2.13;;;1.83;;
17259;SDS011;8746;49.230;9.220;2024-03-25T13:44:19;4.37;;;2.03;;
17259;SDS011;8746;49.230;9.220;2024-03-25T13:46:44;4.30;;;2.13;;
17259;SDS011;8746;49.230;9.220;2024-03-25T13:49:09;2.57;;;1.97;;
17259;SDS011;8746;49.230;9.220;2024-03-25T13:51:36;4.23;;;2.10;;
17259;SDS011;8746;49.230;9.220;2024-03-25T13:54:01;3.40;;;1.83;;
17259;SDS011;8746;49.230;9.220;2024-03-25T13:56:27;3.10;;;1.80;;
17259;SDS011;8746;49.230;9.220;2024-03-25T13:58:53;2.30;;;1.80;;
17259;SDS011;8746;49.230;9.220;2024-03-25T14:01:18;3.50;;;1.90;;
17259;SDS011;8746;49.230;9.220;2024-03-25T14:03:43;3.97;;;1.90;;
17259;SDS011;8746;49.230;9.220;2024-03-25T14:06:08;1.83;;;1.50;;
17259;SDS011;8746;49.230;9.220;2024-03-25T14:08:34;2.23;;;1.80;;
17259;SDS011;8746;49.230;9.220;2024-03-25T14:10:59;1.50;;;1.40;;
17259;SDS011;8746;49.230;9.220;2024-03-25T14:13:26;3.17;;;1.80;;
17259;SDS011;8746;49.230;9.220;2024-03-25T14:15:51;2.70;;;1.83;;
17259;SDS011;8746;49.230;9.220;2024-03-25T14:18:17;3.53;;;1.87;;
17259;SDS011;8746;49.230;9.220;2024-03-25T14:20:42;5.17;;;2.03;;
17259;SDS011;8746;49.230;9.220;2024-03-25T14:23:08;2.17;;;1.70;;
17259;SDS011;8746;49.230;9.220;2024-03-25T14:25:33;2.60;;;1.77;;
17259;SDS011;8746;49.230;9.220;2024-03-25T14:27:59;2.47;;;1.60;;
17259;SDS011;8746;49.230;9.220;2024-03-25T14:30:24;2.33;;;1.47;;
17259;SDS011;8746;49.230;9.220;2024-03-25T14:32:49;1.73;;;1.60;;
17259;SDS011;8746;49.230;9.220;2024-03-25T14:35:15;3.83;;;1.70;;
17259;SDS011;8746;49.230;9.220;2024-03-25T14:37:40;3.00;;;1.83;;
17259;SDS011;8746;49.230;9.220;2024-03-25T14:40:05;3.33;;;1.83;;
17259;SDS011;8746;49.230;9.220;2024-03-25T14:42:31;2.67;;;1.63;;
17259;SDS011;8746;49.230;9.220;2024-03-25T14:44:57;16.17;;;13.73;;
17259;SDS011;8746;49.230;9.220;2024-03-25T14:47:23;4.87;;;2.30;;
17259;SDS011;8746;49.230;9.220;2024-03-25T14:49:49;3.87;;;2.13;;
17259;SDS011;8746;49.230;9.220;2024-03-25T14:52:14;8.77;;;6.40;;
17259;SDS011;8746;49.230;9.220;2024-03-25T14:54:39;4.10;;;2.13;;
17259;SDS011;8746;49.230;9.220;2024-03-25T14:57:05;3.37;;;2.60;;